sensor_id;sensor_type;location;lat;lon;timestamp;pressure;altitude;pressure_sealevel;temperature;humidity
12763;BME280;6445;52.490;13.378;2023-02-12T00:01:46;-12695.97;;;-146.10;100.00
12763;BME280;6445;52.490;13.378;2023-02-12T00:04:12;-12695.97;;;-146.10;100.00
12763;BME280;6445;52.490;13.378;2023-02-12T00:06:38;-12695.97;;;-146.10;100.00
12763;BME280;6445;52.490;13.378;2023-02-12T00:09:04;-12695.97;;;-146.10;100.00
12763;BME280;6445;52.490;13.378;2023-02-12T00:11:29;-12695.97;;;-146.10;100.00
12763;BME280;6445;52.490;13.378;2023-02-12T00:13:55;-12695.97;;;-146.10;100.00
12763;BME280;6445;52.490;13.378;2023-02-12T00:16:23;-12695.97;;;-146.10;100.00
12763;BME280;6445;52.490;13.378;2023-02-12T00:18:53;-12695.97;;;-146.10;100.00
12763;BME280;6445;52.490;13.378;2023-02-12T00:21:19;-12695.97;;;-146.10;100.00
12763;BME280;6445;52.490;13.378;2023-02-12T00:23:45;-12695.97;;;-146.10;100.00
12763;BME280;6445;52.490;13.378;2023-02-12T00:26:13;-12695.97;;;-146.10;100.00
12763;BME280;6445;52.490;13.378;2023-02-12T00:28:39;-12695.97;;;-146.10;100.00
12763;BME280;6445;52.490;13.378;2023-02-12T00:33:31;-12695.97;;;-146.10;100.00
12763;BME280;6445;52.490;13.378;2023-02-12T00:35:56;-12695.97;;;-146.10;100.00
12763;BME280;6445;52.490;13.378;2023-02-12T00:38:22;-12695.97;;;-146.10;100.00
12763;BME280;6445;52.490;13.378;2023-02-12T00:40:47;-12695.97;;;-146.10;100.00
12763;BME280;6445;52.490;13.378;2023-02-12T00:43:12;-12695.97;;;-146.10;100.00
12763;BME280;6445;52.490;13.378;2023-02-12T00:45:37;-12695.97;;;-146.10;100.00
12763;BME280;6445;52.490;13.378;2023-02-12T00:48:03;-12695.97;;;-146.10;100.00
12763;BME280;6445;52.490;13.378;2023-02-12T00:50:28;-12695.97;;;-146.10;100.00
12763;BME280;6445;52.490;13.378;2023-02-12T00:52:54;-12695.97;;;-146.10;100.00
12763;BME280;6445;52.490;13.378;2023-02-12T00:55:19;-12695.97;;;-146.10;100.00
12763;BME280;6445;52.490;13.378;2023-02-12T00:57:45;-12695.97;;;-146.10;100.00
12763;BME280;6445;52.490;13.378;2023-02-12T01:00:10;-12695.97;;;-146.10;100.00
12763;BME280;6445;52.490;13.378;2023-02-12T01:02:36;-12695.97;;;-146.10;100.00
12763;BME280;6445;52.490;13.378;2023-02-12T01:05:01;-12695.97;;;-146.10;100.00
12763;BME280;6445;52.490;13.378;2023-02-12T01:07:27;-12695.97;;;-146.10;100.00
12763;BME280;6445;52.490;13.378;2023-02-12T01:09:52;-12695.97;;;-146.10;100.00
12763;BME280;6445;52.490;13.378;2023-02-12T01:12:17;-12695.97;;;-146.10;100.00
12763;BME280;6445;52.490;13.378;2023-02-12T01:14:42;-12695.97;;;-146.10;100.00
12763;BME280;6445;52.490;13.378;2023-02-12T01:17:08;-12695.97;;;-146.10;100.00
12763;BME280;6445;52.490;13.378;2023-02-12T01:19:33;-12695.97;;;-146.10;100.00
12763;BME280;6445;52.490;13.378;2023-02-12T01:21:59;-12695.97;;;-146.10;100.00
12763;BME280;6445;52.490;13.378;2023-02-12T01:24:24;-12695.97;;;-146.10;100.00
12763;BME280;6445;52.490;13.378;2023-02-12T01:26:49;-12695.97;;;-146.10;100.00
12763;BME280;6445;52.490;13.378;2023-02-12T01:29:14;-12695.97;;;-146.10;100.00
12763;BME280;6445;52.490;13.378;2023-02-12T01:31:40;-12695.97;;;-146.10;100.00
12763;BME280;6445;52.490;13.378;2023-02-12T01:34:06;-12695.97;;;-146.10;100.00
12763;BME280;6445;52.490;13.378;2023-02-12T01:36:32;-12695.97;;;-146.10;100.00
12763;BME280;6445;52.490;13.378;2023-02-12T01:38:58;-12695.97;;;-146.10;100.00
12763;BME280;6445;52.490;13.378;2023-02-12T01:41:26;-12695.97;;;-146.10;100.00
12763;BME280;6445;52.490;13.378;2023-02-12T01:44:10;-12695.97;;;-146.10;100.00
12763;BME280;6445;52.490;13.378;2023-02-12T01:46:36;-12695.97;;;-146.10;100.00
12763;BME280;6445;52.490;13.378;2023-02-12T01:49:04;-12695.97;;;-146.10;100.00
12763;BME280;6445;52.490;13.378;2023-02-12T01:51:31;-12695.97;;;-146.10;100.00
12763;BME280;6445;52.490;13.378;2023-02-12T01:53:59;-12695.97;;;-146.10;100.00
12763;BME280;6445;52.490;13.378;2023-02-12T01:56:26;-12695.97;;;-146.10;100.00
12763;BME280;6445;52.490;13.378;2023-02-12T01:58:52;-12695.97;;;-146.10;100.00
12763;BME280;6445;52.490;13.378;2023-02-12T02:01:22;-12695.97;;;-146.10;100.00
12763;BME280;6445;52.490;13.378;2023-02-12T02:03:51;-12695.97;;;-146.10;100.00
12763;BME280;6445;52.490;13.378;2023-02-12T02:06:21;-12695.97;;;-146.10;100.00
12763;BME280;6445;52.490;13.378;2023-02-12T02:08:51;-12695.97;;;-146.10;100.00
12763;BME280;6445;52.490;13.378;2023-02-12T02:11:16;-12695.97;;;-146.10;100.00
12763;BME280;6445;52.490;13.378;2023-02-12T02:14:00;-12695.97;;;-146.10;100.00
12763;BME280;6445;52.490;13.378;2023-02-12T02:16:52;-12695.97;;;-146.10;100.00
12763;BME280;6445;52.490;13.378;2023-02-12T02:19:40;-12695.97;;;-146.10;100.00
12763;BME280;6445;52.490;13.378;2023-02-12T02:22:27;-12695.97;;;-146.10;100.00
12763;BME280;6445;52.490;13.378;2023-02-12T02:27:37;-12695.97;;;-146.10;100.00
12763;BME280;6445;52.490;13.378;2023-02-12T02:30:15;-12695.97;;;-146.10;100.00
12763;BME280;6445;52.490;13.378;2023-02-12T02:32:53;-12695.97;;;-146.10;100.00
12763;BME280;6445;52.490;13.378;2023-02-12T02:35:26;-12695.97;;;-146.10;100.00
12763;BME280;6445;52.490;13.378;2023-02-12T02:38:17;-12695.97;;;-146.10;100.00
12763;BME280;6445;52.490;13.378;2023-02-12T02:41:02;-12695.97;;;-146.10;100.00
12763;BME280;6445;52.490;13.378;2023-02-12T02:43:32;-12695.97;;;-146.10;100.00
12763;BME280;6445;52.490;13.378;2023-02-12T02:46:07;-12695.97;;;-146.10;100.00
12763;BME280;6445;52.490;13.378;2023-02-12T02:48:39;-12695.97;;;-146.10;100.00
12763;BME280;6445;52.490;13.378;2023-02-12T02:51:11;-12695.97;;;-146.10;100.00
12763;BME280;6445;52.490;13.378;2023-02-12T02:53:42;-12695.97;;;-146.10;100.00
12763;BME280;6445;52.490;13.378;2023-02-12T02:56:13;-12695.97;;;-146.10;100.00
12763;BME280;6445;52.490;13.378;2023-02-12T02:58:43;-12695.97;;;-146.10;100.00
12763;BME280;6445;52.490;13.378;2023-02-12T03:01:21;-12695.97;;;-146.10;100.00
12763;BME280;6445;52.490;13.378;2023-02-12T03:03:52;-12695.97;;;-146.10;100.00
12763;BME280;6445;52.490;13.378;2023-02-12T03:09:15;-12695.97;;;-146.10;100.00
12763;BME280;6445;52.490;13.378;2023-02-12T03:11:42;-12695.97;;;-146.10;100.00
12763;BME280;6445;52.490;13.378;2023-02-12T03:14:14;-12695.97;;;-146.10;100.00
12763;BME280;6445;52.490;13.378;2023-02-12T03:17:03;-12695.97;;;-146.10;100.00
12763;BME280;6445;52.490;13.378;2023-02-12T03:19:34;-12695.97;;;-146.10;100.00
12763;BME280;6445;52.490;13.378;2023-02-12T03:22:05;-12695.97;;;-146.10;100.00
12763;BME280;6445;52.490;13.378;2023-02-12T03:24:50;-12695.97;;;-146.10;100.00
12763;BME280;6445;52.490;13.378;2023-02-12T03:27:34;-12695.97;;;-146.10;100.00
12763;BME280;6445;52.490;13.378;2023-02-12T03:30:02;-12695.97;;;-146.10;100.00
12763;BME280;6445;52.490;13.378;2023-02-12T03:32:35;-12695.97;;;-146.10;100.00
12763;BME280;6445;52.490;13.378;2023-02-12T03:37:55;-12695.97;;;-146.10;100.00
12763;BME280;6445;52.490;13.378;2023-02-12T03:40:34;-12695.97;;;-146.10;100.00
12763;BME280;6445;52.490;13.378;2023-02-12T03:43:05;-12695.97;;;-146.10;100.00
12763;BME280;6445;52.490;13.378;2023-02-12T03:45:55;-12695.97;;;-146.10;100.00
12763;BME280;6445;52.490;13.378;2023-02-12T03:48:26;-12695.97;;;-146.10;100.00
12763;BME280;6445;52.490;13.378;2023-02-12T03:51:03;-12695.97;;;-146.10;100.00
12763;BME280;6445;52.490;13.378;2023-02-12T03:53:29;-12695.97;;;-146.10;100.00
12763;BME280;6445;52.490;13.378;2023-02-12T03:56:00;-12695.97;;;-146.10;100.00
12763;BME280;6445;52.490;13.378;2023-02-12T03:58:28;-12695.97;;;-146.10;100.00
12763;BME280;6445;52.490;13.378;2023-02-12T04:00:54;-12695.97;;;-146.10;100.00
12763;BME280;6445;52.490;13.378;2023-02-12T04:03:20;-12695.97;;;-146.10;100.00
12763;BME280;6445;52.490;13.378;2023-02-12T04:05:45;-12695.97;;;-146.10;100.00
12763;BME280;6445;52.490;13.378;2023-02-12T04:08:11;-12695.97;;;-146.10;100.00
12763;BME280;6445;52.490;13.378;2023-02-12T04:11:00;-12695.97;;;-146.10;100.00
12763;BME280;6445;52.490;13.378;2023-02-12T04:13:40;-12695.97;;;-146.10;100.00
12763;BME280;6445;52.490;13.378;2023-02-12T04:16:19;-12695.97;;;-146.10;100.00
12763;BME280;6445;52.490;13.378;2023-02-12T04:18:47;-12695.97;;;-146.10;100.00
12763;BME280;6445;52.490;13.378;2023-02-12T04:21:42;-12695.97;;;-146.10;100.00
12763;BME280;6445;52.490;13.378;2023-02-12T04:24:18;-12695.97;;;-146.10;100.00
12763;BME280;6445;52.490;13.378;2023-02-12T04:27:11;-12695.97;;;-146.10;100.00
12763;BME280;6445;52.490;13.378;2023-02-12T04:29:41;-12695.97;;;-146.10;100.00
12763;BME280;6445;52.490;13.378;2023-02-12T04:32:15;-12695.97;;;-146.10;100.00
12763;BME280;6445;52.490;13.378;2023-02-12T04:35:04;-12695.97;;;-146.10;100.00
12763;BME280;6445;52.490;13.378;2023-02-12T04:37:40;-12695.97;;;-146.10;100.00
12763;BME280;6445;52.490;13.378;2023-02-12T04:40:10;-12695.97;;;-146.10;100.00
12763;BME280;6445;52.490;13.378;2023-02-12T04:42:42;-12695.97;;;-146.10;100.00
12763;BME280;6445;52.490;13.378;2023-02-12T04:45:09;-12695.97;;;-146.10;100.00
12763;BME280;6445;52.490;13.378;2023-02-12T04:47:35;-12695.97;;;-146.10;100.00
12763;BME280;6445;52.490;13.378;2023-02-12T04:50:01;-12695.97;;;-146.10;100.00
12763;BME280;6445;52.490;13.378;2023-02-12T04:52:26;-12695.97;;;-146.10;100.00
12763;BME280;6445;52.490;13.378;2023-02-12T04:54:51;-12695.97;;;-146.10;100.00
12763;BME280;6445;52.490;13.378;2023-02-12T04:57:16;-12695.97;;;-146.10;100.00
12763;BME280;6445;52.490;13.378;2023-02-12T04:59:42;-12695.97;;;-146.10;100.00
12763;BME280;6445;52.490;13.378;2023-02-12T05:02:07;-12695.97;;;-146.10;100.00
12763;BME280;6445;52.490;13.378;2023-02-12T05:04:32;-12695.97;;;-146.10;100.00
12763;BME280;6445;52.490;13.378;2023-02-12T05:06:57;-12695.97;;;-146.10;100.00
12763;BME280;6445;52.490;13.378;2023-02-12T05:09:23;-12695.97;;;-146.10;100.00
12763;BME280;6445;52.490;13.378;2023-02-12T05:11:48;-12695.97;;;-146.10;100.00
12763;BME280;6445;52.490;13.378;2023-02-12T05:14:13;-12695.97;;;-146.10;100.00
12763;BME280;6445;52.490;13.378;2023-02-12T05:16:38;-12695.97;;;-146.10;100.00
12763;BME280;6445;52.490;13.378;2023-02-12T05:19:04;-12695.97;;;-146.10;100.00
12763;BME280;6445;52.490;13.378;2023-02-12T05:21:29;-12695.97;;;-146.10;100.00
12763;BME280;6445;52.490;13.378;2023-02-12T05:23:54;-12695.97;;;-146.10;100.00
12763;BME280;6445;52.490;13.378;2023-02-12T05:26:20;-12695.97;;;-146.10;100.00
12763;BME280;6445;52.490;13.378;2023-02-12T05:28:46;-12695.97;;;-146.10;100.00
12763;BME280;6445;52.490;13.378;2023-02-12T05:31:14;-12695.97;;;-146.10;100.00
12763;BME280;6445;52.490;13.378;2023-02-12T05:33:43;-12695.97;;;-146.10;100.00
12763;BME280;6445;52.490;13.378;2023-02-12T05:36:12;-12695.97;;;-146.10;100.00
12763;BME280;6445;52.490;13.378;2023-02-12T05:38:38;-12695.97;;;-146.10;100.00
12763;BME280;6445;52.490;13.378;2023-02-12T05:41:05;-12695.97;;;-146.10;100.00
12763;BME280;6445;52.490;13.378;2023-02-12T05:43:31;-12695.97;;;-146.10;100.00
12763;BME280;6445;52.490;13.378;2023-02-12T05:46:02;-12695.97;;;-146.10;100.00
12763;BME280;6445;52.490;13.378;2023-02-12T05:48:28;-12695.97;;;-146.10;100.00
12763;BME280;6445;52.490;13.378;2023-02-12T05:50:54;-12695.97;;;-146.10;100.00
12763;BME280;6445;52.490;13.378;2023-02-12T05:53:25;-12695.97;;;-146.10;100.00
12763;BME280;6445;52.490;13.378;2023-02-12T05:55:50;-12695.97;;;-146.10;100.00
12763;BME280;6445;52.490;13.378;2023-02-12T05:58:15;-12695.97;;;-146.10;100.00
12763;BME280;6445;52.490;13.378;2023-02-12T06:00:41;-12695.97;;;-146.10;100.00
12763;BME280;6445;52.490;13.378;2023-02-12T06:03:06;-12695.97;;;-146.10;100.00
12763;BME280;6445;52.490;13.378;2023-02-12T06:05:32;-12695.97;;;-146.10;100.00
12763;BME280;6445;52.490;13.378;2023-02-12T06:07:57;-12695.97;;;-146.10;100.00
12763;BME280;6445;52.490;13.378;2023-02-12T06:10:22;-12695.97;;;-146.10;100.00
12763;BME280;6445;52.490;13.378;2023-02-12T06:12:53;-12695.97;;;-146.10;100.00
12763;BME280;6445;52.490;13.378;2023-02-12T06:15:18;-12695.97;;;-146.10;100.00
12763;BME280;6445;52.490;13.378;2023-02-12T06:17:43;-12695.97;;;-146.10;100.00
12763;BME280;6445;52.490;13.378;2023-02-12T06:20:08;-12695.97;;;-146.10;100.00
12763;BME280;6445;52.490;13.378;2023-02-12T06:22:34;-12695.97;;;-146.10;100.00
12763;BME280;6445;52.490;13.378;2023-02-12T06:24:59;-12695.97;;;-146.10;100.00
12763;BME280;6445;52.490;13.378;2023-02-12T06:27:24;-12695.97;;;-146.10;100.00
12763;BME280;6445;52.490;13.378;2023-02-12T06:29:49;-12695.97;;;-146.10;100.00
12763;BME280;6445;52.490;13.378;2023-02-12T06:32:15;-12695.97;;;-146.10;100.00
12763;BME280;6445;52.490;13.378;2023-02-12T06:34:40;-12695.97;;;-146.10;100.00
12763;BME280;6445;52.490;13.378;2023-02-12T06:37:05;-12695.97;;;-146.10;100.00
12763;BME280;6445;52.490;13.378;2023-02-12T06:39:30;-12695.97;;;-146.10;100.00
12763;BME280;6445;52.490;13.378;2023-02-12T06:41:56;-12695.97;;;-146.10;100.00
12763;BME280;6445;52.490;13.378;2023-02-12T06:44:21;-12695.97;;;-146.10;100.00
12763;BME280;6445;52.490;13.378;2023-02-12T06:46:47;-12695.97;;;-146.10;100.00
12763;BME280;6445;52.490;13.378;2023-02-12T06:49:12;-12695.97;;;-146.10;100.00
12763;BME280;6445;52.490;13.378;2023-02-12T06:51:38;-12695.97;;;-146.10;100.00
12763;BME280;6445;52.490;13.378;2023-02-12T06:54:11;-12695.97;;;-146.10;100.00
12763;BME280;6445;52.490;13.378;2023-02-12T06:56:36;-12695.97;;;-146.10;100.00
12763;BME280;6445;52.490;13.378;2023-02-12T06:59:02;-12695.97;;;-146.10;100.00
12763;BME280;6445;52.490;13.378;2023-02-12T07:01:28;-12695.97;;;-146.10;100.00
12763;BME280;6445;52.490;13.378;2023-02-12T07:03:56;-12695.97;;;-146.10;100.00
12763;BME280;6445;52.490;13.378;2023-02-12T07:06:23;-12695.97;;;-146.10;100.00
12763;BME280;6445;52.490;13.378;2023-02-12T07:08:49;-12695.97;;;-146.10;100.00
12763;BME280;6445;52.490;13.378;2023-02-12T07:11:14;-12695.97;;;-146.10;100.00
12763;BME280;6445;52.490;13.378;2023-02-12T07:13:41;-12695.97;;;-146.10;100.00
12763;BME280;6445;52.490;13.378;2023-02-12T07:16:09;-12695.97;;;-146.10;100.00
12763;BME280;6445;52.490;13.378;2023-02-12T07:18:36;-12695.97;;;-146.10;100.00
12763;BME280;6445;52.490;13.378;2023-02-12T07:21:03;-12695.97;;;-146.10;100.00
12763;BME280;6445;52.490;13.378;2023-02-12T07:23:30;-12695.97;;;-146.10;100.00
12763;BME280;6445;52.490;13.378;2023-02-12T07:25:56;-12695.97;;;-146.10;100.00
12763;BME280;6445;52.490;13.378;2023-02-12T07:28:23;-12695.97;;;-146.10;100.00
12763;BME280;6445;52.490;13.378;2023-02-12T07:30:48;-12695.97;;;-146.10;100.00
12763;BME280;6445;52.490;13.378;2023-02-12T07:33:13;-12695.97;;;-146.10;100.00
12763;BME280;6445;52.490;13.378;2023-02-12T07:35:38;-12695.97;;;-146.10;100.00
12763;BME280;6445;52.490;13.378;2023-02-12T07:38:04;-12695.97;;;-146.10;100.00
12763;BME280;6445;52.490;13.378;2023-02-12T07:40:29;-12695.97;;;-146.10;100.00
12763;BME280;6445;52.490;13.378;2023-02-12T07:42:55;-12695.97;;;-146.10;100.00
12763;BME280;6445;52.490;13.378;2023-02-12T07:45:20;-12695.97;;;-146.10;100.00
12763;BME280;6445;52.490;13.378;2023-02-12T07:47:45;-12695.97;;;-146.10;100.00
12763;BME280;6445;52.490;13.378;2023-02-12T07:50:11;-12695.97;;;-146.10;100.00
12763;BME280;6445;52.490;13.378;2023-02-12T07:52:36;-12695.97;;;-146.10;100.00
12763;BME280;6445;52.490;13.378;2023-02-12T07:55:01;-12695.97;;;-146.10;100.00
12763;BME280;6445;52.490;13.378;2023-02-12T07:57:27;-12695.97;;;-146.10;100.00
12763;BME280;6445;52.490;13.378;2023-02-12T07:59:52;-12695.97;;;-146.10;100.00
12763;BME280;6445;52.490;13.378;2023-02-12T08:02:17;-12694.50;;;-146.10;100.00
12763;BME280;6445;52.490;13.378;2023-02-12T08:04:43;-12190.78;;;-146.10;100.00
12763;BME280;6445;52.490;13.378;2023-02-12T08:07:08;-11687.00;;;-146.10;100.00
12763;BME280;6445;52.490;13.378;2023-02-12T08:09:33;-11435.06;;;-146.10;100.00
12763;BME280;6445;52.490;13.378;2023-02-12T08:11:59;-10175.25;;;-146.10;100.00
12763;BME280;6445;52.490;13.378;2023-02-12T08:14:25;-9167.06;;;-146.10;100.00
12763;BME280;6445;52.490;13.378;2023-02-12T08:16:51;-7654.34;;;-146.10;100.00
12763;BME280;6445;52.490;13.378;2023-02-12T08:19:16;-6645.50;;;-146.10;100.00
12763;BME280;6445;52.490;13.378;2023-02-12T08:21:42;-6393.25;;;-146.10;100.00
12763;BME280;6445;52.490;13.378;2023-02-12T08:24:09;-6141.00;;;-146.10;100.00
12763;BME280;6445;52.490;13.378;2023-02-12T08:26:36;-5384.09;;;-146.10;100.00
12763;BME280;6445;52.490;13.378;2023-02-12T08:29:09;-4374.69;;;-146.10;100.00
12763;BME280;6445;52.490;13.378;2023-02-12T08:31:37;-2607.53;;;-146.10;100.00
12763;BME280;6445;52.490;13.378;2023-02-12T08:34:04;929.16;;;-146.10;100.00
12763;BME280;6445;52.490;13.378;2023-02-12T08:36:35;1687.44;;;-146.10;100.00
12763;BME280;6445;52.490;13.378;2023-02-12T08:39:01;4279.38;;;-146.10;100.00
12763;BME280;6445;52.490;13.378;2023-02-12T08:41:28;5520.63;;;-146.10;100.00
12763;BME280;6445;52.490;13.378;2023-02-12T08:43:58;7521.72;;;-146.10;100.00
12763;BME280;6445;52.490;13.378;2023-02-12T08:46:29;10798.50;;;-146.10;100.00
12763;BME280;6445;52.490;13.378;2023-02-12T08:48:56;13620.38;;;-146.10;100.00
12763;BME280;6445;52.490;13.378;2023-02-12T08:51:25;15708.91;;;-146.10;100.00
12763;BME280;6445;52.490;13.378;2023-02-12T08:53:52;17564.56;;;-146.10;100.00
12763;BME280;6445;52.490;13.378;2023-02-12T08:56:18;20786.31;;;-146.10;100.00
12763;BME280;6445;52.490;13.378;2023-02-12T08:58:44;24952.34;;;-146.10;100.00
12763;BME280;6445;52.490;13.378;2023-02-12T09:01:15;25329.84;;;-146.10;100.00
12763;BME280;6445;52.490;13.378;2023-02-12T09:03:42;33817.44;;;-146.10;100.00
12763;BME280;6445;52.490;13.378;2023-02-12T09:06:08;35564.16;;;-146.10;100.00
12763;BME280;6445;52.490;13.378;2023-02-12T09:08:35;29355.53;;;-146.10;100.00
12763;BME280;6445;52.490;13.378;2023-02-12T09:11:05;22277.06;;;-146.10;100.00
12763;BME280;6445;52.490;13.378;2023-02-12T09:13:31;16275.81;;;-146.10;100.00
12763;BME280;6445;52.490;13.378;2023-02-12T09:15:59;11022.19;;;-146.10;100.00
12763;BME280;6445;52.490;13.378;2023-02-12T09:18:25;6299.59;;;-146.10;100.00
12763;BME280;6445;52.490;13.378;2023-02-12T09:20:50;1689.41;;;-146.10;100.00
12763;BME280;6445;52.490;13.378;2023-02-12T09:23:16;-1482.94;;;-146.10;100.00
12763;BME280;6445;52.490;13.378;2023-02-12T09:25:43;-3980.28;;;-146.10;100.00
12763;BME280;6445;52.490;13.378;2023-02-12T09:28:10;-4548.19;;;-146.10;100.00
12763;BME280;6445;52.490;13.378;2023-02-12T09:30:37;-4834.06;;;-146.10;100.00
12763;BME280;6445;52.490;13.378;2023-02-12T09:33:04;-4374.69;;;-146.10;100.00
12763;BME280;6445;52.490;13.378;2023-02-12T09:35:30;-3617.44;;;-146.10;100.00
12763;BME280;6445;52.490;13.378;2023-02-12T09:37:57;-1597.41;;;-146.10;100.00
12763;BME280;6445;52.490;13.378;2023-02-12T09:40:31;-334.34;;;-146.10;100.00
12763;BME280;6445;52.490;13.378;2023-02-12T09:45:34;4032.34;;;-146.10;100.00
12763;BME280;6445;52.490;13.378;2023-02-12T09:48:16;3852.53;;;-146.10;100.00
12763;BME280;6445;52.490;13.378;2023-02-12T09:50:56;2499.19;;;-146.10;100.00
12763;BME280;6445;52.490;13.378;2023-02-12T09:53:26;1963.94;;;-146.10;100.00
12763;BME280;6445;52.490;13.378;2023-02-12T09:55:53;-545.53;;;-146.10;100.00
12763;BME280;6445;52.490;13.378;2023-02-12T09:58:29;-3165.78;;;-146.10;100.00
12763;BME280;6445;52.490;13.378;2023-02-12T10:00:55;-5265.81;;;-146.10;100.00
12763;BME280;6445;52.490;13.378;2023-02-12T10:03:20;-4122.28;;;-146.10;100.00
12763;BME280;6445;52.490;13.378;2023-02-12T10:09:01;-4627.06;;;-146.10;100.00
12763;BME280;6445;52.490;13.378;2023-02-12T10:11:59;-7906.50;;;-146.10;100.00
12763;BME280;6445;52.490;13.378;2023-02-12T10:14:46;-8662.91;;;-146.10;100.00
12763;BME280;6445;52.490;13.378;2023-02-12T10:17:32;-7654.34;;;-146.10;100.00
12763;BME280;6445;52.490;13.378;2023-02-12T10:20:26;-6393.25;;;-146.10;100.00
12763;BME280;6445;52.490;13.378;2023-02-12T10:23:05;-5384.09;;;-146.10;100.00
12763;BME280;6445;52.490;13.378;2023-02-12T10:25:44;-4627.06;;;-146.10;100.00
12763;BME280;6445;52.490;13.378;2023-02-12T10:28:16;-2607.53;;;-146.10;100.00
12763;BME280;6445;52.490;13.378;2023-02-12T10:30:58;-2860.03;;;-146.10;100.00
12763;BME280;6445;52.490;13.378;2023-02-12T10:33:33;-4627.06;;;-146.10;100.00
12763;BME280;6445;52.490;13.378;2023-02-12T10:39:14;-9671.19;;;-146.10;100.00
12763;BME280;6445;52.490;13.378;2023-02-12T10:42:02;-11183.13;;;-146.10;100.00
12763;BME280;6445;52.490;13.378;2023-02-12T10:44:31;-11687.00;;;-146.10;100.00
12763;BME280;6445;52.490;13.378;2023-02-12T10:46:57;-12442.63;;;-146.10;100.00
12763;BME280;6445;52.490;13.378;2023-02-12T10:49:22;-12694.50;;;-146.10;100.00
12763;BME280;6445;52.490;13.378;2023-02-12T10:51:57;-12695.97;;;-146.10;100.00
12763;BME280;6445;52.490;13.378;2023-02-12T10:54:46;-12695.97;;;-146.10;100.00
12763;BME280;6445;52.490;13.378;2023-02-12T10:57:25;-12695.97;;;-146.10;100.00
12763;BME280;6445;52.490;13.378;2023-02-12T10:59:54;-12695.97;;;-146.10;100.00
12763;BME280;6445;52.490;13.378;2023-02-12T11:02:27;-12695.97;;;-146.10;100.00
12763;BME280;6445;52.490;13.378;2023-02-12T11:04:54;-12695.97;;;-146.10;100.00
12763;BME280;6445;52.490;13.378;2023-02-12T11:07:20;-12695.97;;;-146.10;100.00
12763;BME280;6445;52.490;13.378;2023-02-12T11:09:48;-12695.97;;;-146.10;100.00
12763;BME280;6445;52.490;13.378;2023-02-12T11:12:27;-12695.97;;;-146.10;100.00
12763;BME280;6445;52.490;13.378;2023-02-12T11:14:56;-12695.97;;;-146.10;100.00
12763;BME280;6445;52.490;13.378;2023-02-12T11:17:44;-12695.97;;;-146.10;100.00
12763;BME280;6445;52.490;13.378;2023-02-12T11:23:00;-12695.97;;;-146.10;100.00
12763;BME280;6445;52.490;13.378;2023-02-12T11:25:31;-12695.97;;;-146.10;100.00
12763;BME280;6445;52.490;13.378;2023-02-12T11:28:14;-12695.97;;;-146.10;100.00
12763;BME280;6445;52.490;13.378;2023-02-12T11:31:00;-12695.97;;;-146.10;100.00
12763;BME280;6445;52.490;13.378;2023-02-12T11:33:34;-12695.97;;;-146.10;100.00
12763;BME280;6445;52.490;13.378;2023-02-12T11:36:14;-12695.97;;;-146.10;100.00
12763;BME280;6445;52.490;13.378;2023-02-12T11:39:02;-12695.97;;;-146.10;100.00
12763;BME280;6445;52.490;13.378;2023-02-12T11:44:12;-12695.97;;;-146.10;100.00
12763;BME280;6445;52.490;13.378;2023-02-12T11:46:46;-12695.97;;;-146.10;100.00
12763;BME280;6445;52.490;13.378;2023-02-12T11:49:20;-12695.97;;;-146.10;100.00
12763;BME280;6445;52.490;13.378;2023-02-12T11:51:48;-12695.97;;;-146.10;100.00
12763;BME280;6445;52.490;13.378;2023-02-12T11:54:20;-12695.97;;;-146.10;100.00
12763;BME280;6445;52.490;13.378;2023-02-12T11:56:47;-12695.97;;;-146.10;100.00
12763;BME280;6445;52.490;13.378;2023-02-12T12:01:51;-12695.97;;;-146.10;100.00
12763;BME280;6445;52.490;13.378;2023-02-12T12:04:21;-12695.97;;;-146.10;100.00
12763;BME280;6445;52.490;13.378;2023-02-12T12:06:50;-12695.97;;;-146.10;100.00
12763;BME280;6445;52.490;13.378;2023-02-12T12:09:25;-12695.97;;;-146.10;100.00
12763;BME280;6445;52.490;13.378;2023-02-12T12:12:01;-12694.50;;;-146.10;100.00
12763;BME280;6445;52.490;13.378;2023-02-12T12:14:31;-12190.78;;;-146.10;100.00
12763;BME280;6445;52.490;13.378;2023-02-12T12:17:24;-12190.78;;;-146.10;100.00
12763;BME280;6445;52.490;13.378;2023-02-12T12:20:14;-12442.63;;;-146.10;100.00
12763;BME280;6445;52.490;13.378;2023-02-12T12:23:08;-12442.63;;;-146.10;100.00
12763;BME280;6445;52.490;13.378;2023-02-12T12:25:46;-12442.63;;;-146.10;100.00
12763;BME280;6445;52.490;13.378;2023-02-12T12:28:24;-12442.63;;;-146.10;100.00
12763;BME280;6445;52.490;13.378;2023-02-12T12:30:58;-11938.88;;;-146.10;100.00
12763;BME280;6445;52.490;13.378;2023-02-12T12:33:47;-11183.13;;;-146.10;100.00
12763;BME280;6445;52.490;13.378;2023-02-12T12:39:35;-8915.00;;;-146.10;100.00
12763;BME280;6445;52.490;13.378;2023-02-12T12:50:51;-7654.34;;;-146.10;100.00
12763;BME280;6445;52.490;13.378;2023-02-12T12:53:43;-5888.72;;;-146.10;100.00
12763;BME280;6445;52.490;13.378;2023-02-12T12:56:28;-4122.28;;;-146.10;100.00
12763;BME280;6445;52.490;13.378;2023-02-12T13:01:58;-839.59;;;-146.10;100.00
12763;BME280;6445;52.490;13.378;2023-02-12T13:04:40;-2355.03;;;-146.10;100.00
12763;BME280;6445;52.490;13.378;2023-02-12T13:07:32;-2102.50;;;-146.10;100.00
12763;BME280;6445;52.490;13.378;2023-02-12T13:10:32;-839.59;;;-146.10;100.00
12763;BME280;6445;52.490;13.378;2023-02-12T13:13:20;9278.50;;;-146.10;100.00
12763;BME280;6445;52.490;13.378;2023-02-12T13:21:54;23488.34;;;-146.10;100.00
12763;BME280;6445;52.490;13.378;2023-02-12T13:24:41;32589.00;;;-146.10;100.00
12763;BME280;6445;52.490;13.378;2023-02-12T13:27:15;44732.84;;;-146.10;100.00
12763;BME280;6445;52.490;13.378;2023-02-12T13:29:49;48130.91;;;-146.10;100.00